createdAt,value
2018-11-26T00:01:25.970Z,52.70
2018-11-26T00:03:53.979Z,55.73
2018-11-26T00:06:22.015Z,57.27
2018-11-26T00:08:50.039Z,59.17
2018-11-26T00:11:23.763Z,57.20
2018-11-26T00:13:51.803Z,53.93
2018-11-26T00:16:19.831Z,59.80
2018-11-26T00:18:47.879Z,55.07
2018-11-26T00:21:15.947Z,57.23
2018-11-26T00:23:43.979Z,54.40
2018-11-26T00:26:12.036Z,56.13
2018-11-26T00:28:40.077Z,55.73
2018-11-26T00:31:08.124Z,52.73
2018-11-26T00:33:42.738Z,53.70
2018-11-26T00:36:10.777Z,58.87
2018-11-26T00:38:38.949Z,53.17
2018-11-26T00:41:06.997Z,59.80
2018-11-26T00:43:35.033Z,54.83
2018-11-26T00:46:03.106Z,53.87
2018-11-26T00:48:31.165Z,51.80
2018-11-26T00:50:59.201Z,54.93
2018-11-26T00:53:27.231Z,62.63
2018-11-26T00:55:55.279Z,50.57
2018-11-26T00:58:23.591Z,54.90
2018-11-26T01:00:51.646Z,54.10
2018-11-26T01:03:19.681Z,55.37
2018-11-26T01:05:47.728Z,53.13
2018-11-26T01:08:15.803Z,50.33
2018-11-26T01:10:43.854Z,53.40
2018-11-26T01:13:11.901Z,58.47
2018-11-26T01:15:39.970Z,48.73
2018-11-26T01:18:08.028Z,52.53
2018-11-26T01:20:36.090Z,54.63
2018-11-26T01:23:04.214Z,54.13
2018-11-26T01:25:32.738Z,47.13
2018-11-26T01:28:00.778Z,50.27
2018-11-26T01:30:28.814Z,48.37
2018-11-26T01:32:56.898Z,48.80
2018-11-26T01:35:24.967Z,48.13
2018-11-26T01:37:53.026Z,46.03
2018-11-26T01:40:21.434Z,47.60
2018-11-26T01:42:49.560Z,42.80
2018-11-26T01:45:17.614Z,46.17
2018-11-26T01:47:45.663Z,38.50
2018-11-26T01:50:13.697Z,39.53
2018-11-26T01:52:41.762Z,41.80
2018-11-26T01:55:10.370Z,38.93
2018-11-26T01:57:38.511Z,40.10
2018-11-26T02:00:13.855Z,42.07
2018-11-26T02:02:42.098Z,40.57
2018-11-26T02:05:10.311Z,44.53
2018-11-26T02:07:38.395Z,41.83
2018-11-26T02:10:09.346Z,39.10
2018-11-26T02:12:37.423Z,43.63
2018-11-26T02:15:06.289Z,38.40
2018-11-26T02:17:34.353Z,36.53
2018-11-26T02:20:02.419Z,38.80
2018-11-26T02:22:30.479Z,37.67
2018-11-26T02:24:58.535Z,36.73
2018-11-26T02:27:26.591Z,35.67
2018-11-26T02:29:54.627Z,42.23
2018-11-26T02:32:22.667Z,37.47
2018-11-26T02:34:50.715Z,37.67
2018-11-26T02:37:18.749Z,38.30
2018-11-26T02:39:46.823Z,38.70
2018-11-26T02:42:14.848Z,41.07
2018-11-26T02:44:42.891Z,39.60
2018-11-26T02:47:10.942Z,38.37
2018-11-26T02:49:39.056Z,39.17
2018-11-26T02:52:07.076Z,38.33
2018-11-26T02:54:35.144Z,40.57
2018-11-26T02:57:03.184Z,39.67
2018-11-26T02:59:31.243Z,38.30
2018-11-26T03:01:59.276Z,38.37
2018-11-26T03:04:27.298Z,37.10
2018-11-26T03:06:55.332Z,41.77
2018-11-26T03:09:23.359Z,35.43
2018-11-26T03:11:51.396Z,36.43
2018-11-26T03:14:19.828Z,35.40
2018-11-26T03:16:47.865Z,38.93
2018-11-26T03:19:15.865Z,38.93
2018-11-26T03:21:43.889Z,41.47
2018-11-26T03:24:11.928Z,44.93
2018-11-26T03:26:39.968Z,40.67
2018-11-26T03:29:07.996Z,39.70
2018-11-26T03:31:36.035Z,40.47
2018-11-26T03:34:04.073Z,39.83
2018-11-26T03:36:32.092Z,41.37
2018-11-26T03:39:00.121Z,40.70
2018-11-26T03:41:28.145Z,41.27
2018-11-26T03:43:56.156Z,41.40
2018-11-26T03:46:24.216Z,40.50
2018-11-26T03:48:52.268Z,38.70
2018-11-26T03:51:20.320Z,39.07
2018-11-26T03:53:48.344Z,43.57
2018-11-26T03:56:16.385Z,38.27
2018-11-26T03:58:44.426Z,37.93
2018-11-26T04:01:12.488Z,41.37
2018-11-26T04:03:40.520Z,39.27
2018-11-26T04:06:08.564Z,37.23
2018-11-26T04:08:36.581Z,38.10
2018-11-26T04:11:05.349Z,39.17
2018-11-26T04:13:33.425Z,40.70
2018-11-26T04:16:01.469Z,36.63
2018-11-26T04:18:29.503Z,39.37
2018-11-26T04:20:57.516Z,38.80
2018-11-26T04:23:25.547Z,40.30
2018-11-26T04:25:53.555Z,42.53
2018-11-26T04:28:21.610Z,35.70
2018-11-26T04:30:49.639Z,36.30
2018-11-26T04:33:17.653Z,34.97
2018-11-26T04:35:52.301Z,36.37
2018-11-26T04:38:20.321Z,37.80
2018-11-26T04:40:48.369Z,39.27
2018-11-26T04:43:16.437Z,35.00
2018-11-26T04:45:44.522Z,38.83
2018-11-26T04:48:12.558Z,37.80
2018-11-26T04:50:40.614Z,39.83
2018-11-26T04:53:08.637Z,43.17
2018-11-26T04:55:36.661Z,36.10
2018-11-26T04:58:04.791Z,35.30
2018-11-26T05:00:32.910Z,37.83
2018-11-26T05:03:00.968Z,39.57
2018-11-26T05:05:29.021Z,37.70
2018-11-26T05:07:57.069Z,39.00
2018-11-26T05:10:25.181Z,38.33
2018-11-26T05:12:53.217Z,36.10
2018-11-26T05:15:21.386Z,37.40
2018-11-26T05:17:49.473Z,38.63
2018-11-26T05:20:17.516Z,39.50
2018-11-26T05:22:45.539Z,38.27
2018-11-26T05:25:13.614Z,35.97
2018-11-26T05:27:41.637Z,33.23
2018-11-26T05:30:10.373Z,36.07
2018-11-26T05:32:38.446Z,38.77
2018-11-26T05:35:07.064Z,37.23
2018-11-26T05:37:35.102Z,36.13
2018-11-26T05:40:03.148Z,40.20
2018-11-26T05:42:31.202Z,36.70
2018-11-26T05:44:59.302Z,35.93
2018-11-26T05:47:27.338Z,37.27
2018-11-26T05:49:55.390Z,38.67
2018-11-26T05:52:23.414Z,38.43
2018-11-26T05:54:51.490Z,43.03
2018-11-26T05:57:19.522Z,35.30
2018-11-26T05:59:47.574Z,39.90
2018-11-26T06:02:15.630Z,38.10
2018-11-26T06:04:43.698Z,38.37
2018-11-26T06:07:11.774Z,44.40
2018-11-26T06:09:39.875Z,41.13
2018-11-26T06:12:07.898Z,41.80
2018-11-26T06:14:35.948Z,42.13
2018-11-26T06:17:03.986Z,41.57
2018-11-26T06:19:32.047Z,45.00
2018-11-26T06:22:00.111Z,46.07
2018-11-26T06:24:28.126Z,43.03
2018-11-26T06:26:56.166Z,45.10
2018-11-26T06:29:24.165Z,48.30
2018-11-26T06:31:52.171Z,54.57
2018-11-26T06:34:20.155Z,53.10
2018-11-26T06:36:48.155Z,51.63
2018-11-26T06:39:16.154Z,48.13
2018-11-26T06:41:44.195Z,56.07
2018-11-26T06:44:12.203Z,55.97
2018-11-26T06:46:40.207Z,53.57
2018-11-26T06:49:08.211Z,48.63
2018-11-26T06:51:36.203Z,46.63
2018-11-26T06:54:04.215Z,54.27
2018-11-26T06:56:32.228Z,52.53
2018-11-26T06:59:00.227Z,51.17
2018-11-26T07:01:28.242Z,55.13
2018-11-26T07:03:56.248Z,52.27
2018-11-26T07:06:30.727Z,52.03
2018-11-26T07:08:58.743Z,47.93
2018-11-26T07:11:26.763Z,55.07
2018-11-26T07:13:54.787Z,50.17
2018-11-26T07:16:22.807Z,51.80
2018-11-26T07:18:50.819Z,73.43
2018-11-26T07:21:18.836Z,57.23
2018-11-26T07:23:46.843Z,59.33
2018-11-26T07:26:14.887Z,60.83
2018-11-26T07:28:42.892Z,54.27
2018-11-26T07:31:10.892Z,62.83
2018-11-26T07:33:38.919Z,96.87
2018-11-26T07:36:11.156Z,66.73
2018-11-26T07:38:34.980Z,61.27
2018-11-26T07:41:03.000Z,55.30
2018-11-26T07:43:30.991Z,72.20
2018-11-26T07:45:59.043Z,56.00
2018-11-26T07:48:27.052Z,54.40
2018-11-26T07:50:55.061Z,55.27
2018-11-26T07:53:23.057Z,54.90
2018-11-26T07:55:51.160Z,55.97
2018-11-26T07:58:19.176Z,60.00
2018-11-26T08:00:47.183Z,58.77
2018-11-26T08:03:15.180Z,58.50
2018-11-26T08:05:43.201Z,61.53
2018-11-26T08:08:11.221Z,59.57
2018-11-26T08:10:39.252Z,64.00
2018-11-26T08:13:07.296Z,66.83
2018-11-26T08:15:35.324Z,71.10
2018-11-26T08:18:03.416Z,76.43
2018-11-26T08:20:31.419Z,69.27
2018-11-26T08:22:59.464Z,73.23
2018-11-26T08:25:27.464Z,68.03
2018-11-26T08:27:55.446Z,72.03
2018-11-26T08:30:24.168Z,71.40
2018-11-26T08:32:52.780Z,77.43
2018-11-26T08:35:20.821Z,76.40
2018-11-26T08:37:54.238Z,77.87
2018-11-26T08:40:29.492Z,74.20
2018-11-26T08:43:15.319Z,82.80
2018-11-26T08:45:50.658Z,71.77
2018-11-26T08:48:31.003Z,64.80
2018-11-26T08:50:59.580Z,69.57
2018-11-26T08:53:27.656Z,73.33
2018-11-26T08:55:55.700Z,73.03
2018-11-26T08:58:23.764Z,73.57
2018-11-26T09:00:57.156Z,64.93
2018-11-26T09:03:30.652Z,71.47
2018-11-26T09:06:01.145Z,61.37
2018-11-26T09:08:29.769Z,63.17
2018-11-26T09:10:57.869Z,61.83
2018-11-26T09:13:25.921Z,60.43
2018-11-26T09:15:53.931Z,54.30
2018-11-26T09:18:21.925Z,61.17
2018-11-26T09:20:49.964Z,61.23
2018-11-26T09:23:17.965Z,61.30
2018-11-26T09:25:45.989Z,59.77
2018-11-26T09:28:14.005Z,56.23
2018-11-26T09:30:42.070Z,58.67
2018-11-26T09:33:10.101Z,57.10
2018-11-26T09:35:38.153Z,61.23
2018-11-26T09:38:06.233Z,64.90
2018-11-26T09:40:34.377Z,59.97
2018-11-26T09:43:02.389Z,66.57
2018-11-26T09:45:30.429Z,59.63
2018-11-26T09:47:58.821Z,61.13
2018-11-26T09:50:26.839Z,60.53
2018-11-26T09:52:55.854Z,61.87
2018-11-26T09:55:23.097Z,57.30
2018-11-26T09:57:51.125Z,56.90
2018-11-26T10:00:19.882Z,53.93
2018-11-26T10:02:48.573Z,58.67
2018-11-26T10:05:21.297Z,57.87
2018-11-26T10:07:49.391Z,58.30
2018-11-26T10:10:17.409Z,58.40
2018-11-26T10:12:45.565Z,58.07
2018-11-26T10:15:20.171Z,60.03
2018-11-26T10:17:48.333Z,58.23
2018-11-26T10:20:16.501Z,58.63
2018-11-26T10:22:45.030Z,59.30
2018-11-26T10:25:14.678Z,59.90
2018-11-26T10:27:49.157Z,56.37
2018-11-26T10:30:19.217Z,55.57
2018-11-26T10:32:47.669Z,56.10
2018-11-26T10:35:16.238Z,56.50
2018-11-26T10:37:44.353Z,58.33
2018-11-26T10:40:12.870Z,55.37
2018-11-26T10:42:40.947Z,52.03
2018-11-26T10:45:09.738Z,52.90
2018-11-26T10:47:37.746Z,66.40
2018-11-26T10:50:07.012Z,53.53
2018-11-26T10:52:35.034Z,49.10
2018-11-26T10:55:03.322Z,52.40
2018-11-26T10:57:31.306Z,50.03
2018-11-26T10:59:59.703Z,47.80
2018-11-26T11:02:39.539Z,51.47
2018-11-26T11:05:08.530Z,52.80
2018-11-26T11:07:36.918Z,52.07
2018-11-26T11:10:10.456Z,50.50
2018-11-26T11:12:38.958Z,49.73
2018-11-26T11:15:10.651Z,53.77
2018-11-26T11:17:39.342Z,51.73
2018-11-26T11:20:12.071Z,53.53
2018-11-26T11:22:40.459Z,55.03
2018-11-26T11:25:19.647Z,52.37
2018-11-26T11:27:48.263Z,48.77
2018-11-26T11:30:19.110Z,61.67
2018-11-26T11:32:47.378Z,53.07
2018-11-26T11:35:16.418Z,49.80
2018-11-26T11:37:46.162Z,47.10
2018-11-26T11:40:30.711Z,50.23
2018-11-26T11:43:00.486Z,50.17
2018-11-26T11:45:29.697Z,52.37
2018-11-26T11:47:58.118Z,44.17
2018-11-26T11:50:26.502Z,46.37
2018-11-26T11:53:59.422Z,52.37
2018-11-26T11:56:28.113Z,45.20
2018-11-26T11:58:56.511Z,45.87
2018-11-26T12:01:25.110Z,42.87
2018-11-26T12:03:53.530Z,42.33
2018-11-26T12:06:22.038Z,46.67
2018-11-26T12:08:51.242Z,48.43
2018-11-26T12:11:19.610Z,50.80
2018-11-26T12:13:47.894Z,48.73
2018-11-26T12:16:16.239Z,56.33
2018-11-26T12:18:44.246Z,52.30
2018-11-26T12:21:12.258Z,50.20
2018-11-26T12:23:40.306Z,54.27
2018-11-26T12:26:08.437Z,47.87
2018-11-26T12:28:36.517Z,51.77
2018-11-26T12:31:04.870Z,75.47
2018-11-26T12:33:32.942Z,44.70
2018-11-26T12:36:01.326Z,44.67
2018-11-26T12:38:29.844Z,51.63
2018-11-26T12:40:58.254Z,43.57
2018-11-26T12:43:26.595Z,42.20
2018-11-26T12:45:54.978Z,39.23
2018-11-26T12:48:23.266Z,45.03
2018-11-26T12:50:51.682Z,40.47
2018-11-26T12:53:20.014Z,38.70
2018-11-26T12:55:48.327Z,41.20
2018-11-26T12:58:16.586Z,38.13
2018-11-26T13:00:44.891Z,35.00
2018-11-26T13:03:13.703Z,33.47
2018-11-26T13:05:42.035Z,38.13
2018-11-26T13:08:10.288Z,33.33
2018-11-26T13:10:38.872Z,39.27
2018-11-26T13:13:08.635Z,39.43
2018-11-26T13:15:36.899Z,34.30
2018-11-26T13:18:05.331Z,35.83
2018-11-26T13:20:33.844Z,36.23
2018-11-26T13:23:02.100Z,34.97
2018-11-26T13:25:32.229Z,38.20
2018-11-26T13:28:01.543Z,40.40
2018-11-26T13:30:33.467Z,43.70
2018-11-26T13:33:03.412Z,48.77
2018-11-26T13:35:31.668Z,39.83
2018-11-26T13:37:59.942Z,37.47
2018-11-26T13:40:28.185Z,38.00
2018-11-26T13:42:56.444Z,39.63
2018-11-26T13:45:26.330Z,43.03
2018-11-26T13:47:54.704Z,40.80
2018-11-26T13:50:28.252Z,36.67
2018-11-26T13:52:56.884Z,39.93
2018-11-26T13:55:25.148Z,39.07
2018-11-26T13:57:53.394Z,40.03
2018-11-26T14:00:21.664Z,35.23
2018-11-26T14:02:49.993Z,32.10
2018-11-26T14:05:18.749Z,34.30
2018-11-26T14:07:47.336Z,30.40
2018-11-26T14:10:17.013Z,30.40
2018-11-26T14:12:46.210Z,30.97
2018-11-26T14:15:15.093Z,30.97
2018-11-26T14:17:43.349Z,28.50
2018-11-26T14:20:13.241Z,28.97
2018-11-26T14:22:41.553Z,30.60
2018-11-26T14:25:13.254Z,28.23
2018-11-26T14:27:41.867Z,27.83
2018-11-26T14:30:17.793Z,28.23
2018-11-26T14:32:45.826Z,25.20
2018-11-26T14:35:13.857Z,26.63
2018-11-26T14:37:41.965Z,27.77
2018-11-26T14:40:10.777Z,28.27
2018-11-26T14:42:38.842Z,27.50
2018-11-26T14:45:08.637Z,25.87
2018-11-26T14:47:36.669Z,28.60
2018-11-26T14:50:05.718Z,25.73
2018-11-26T14:52:33.758Z,28.23
2018-11-26T14:55:01.809Z,28.50
2018-11-26T14:57:30.762Z,31.43
2018-11-26T14:59:57.874Z,31.80
2018-11-26T15:02:25.926Z,25.50
2018-11-26T15:04:53.946Z,24.50
2018-11-26T15:07:21.962Z,29.17
2018-11-26T15:09:49.994Z,27.83
2018-11-26T15:12:18.213Z,29.77
2018-11-26T15:14:46.366Z,28.40
2018-11-26T15:17:14.406Z,28.50
2018-11-26T15:19:42.446Z,25.33
2018-11-26T15:22:10.786Z,28.57
2018-11-26T15:24:38.790Z,31.40
2018-11-26T15:27:07.182Z,30.27
2018-11-26T15:29:35.178Z,26.07
2018-11-26T15:32:03.338Z,29.70
2018-11-26T15:34:31.361Z,26.67
2018-11-26T15:36:59.418Z,29.97
2018-11-26T15:39:27.565Z,27.70
2018-11-26T15:41:55.634Z,26.83
2018-11-26T15:44:24.690Z,28.50
2018-11-26T15:46:52.702Z,28.90
2018-11-26T15:49:21.390Z,29.50
2018-11-26T15:51:49.653Z,32.70
2018-11-26T15:54:17.802Z,31.77
2018-11-26T15:56:45.868Z,32.60
2018-11-26T15:59:14.167Z,36.93
2018-11-26T16:01:42.175Z,34.73
2018-11-26T16:04:10.234Z,32.03
2018-11-26T16:06:38.402Z,37.60
2018-11-26T16:09:08.742Z,42.57
2018-11-26T16:11:37.070Z,32.37
2018-11-26T16:14:05.773Z,33.57
2018-11-26T16:16:33.815Z,37.27
2018-11-26T16:19:01.831Z,29.40
2018-11-26T16:21:30.360Z,33.63
2018-11-26T16:23:58.443Z,36.57
2018-11-26T16:26:27.518Z,31.97
2018-11-26T16:28:55.551Z,34.53
2018-11-26T16:31:23.535Z,31.23
2018-11-26T16:33:51.591Z,31.60
2018-11-26T16:36:19.702Z,31.13
2018-11-26T16:38:48.306Z,30.03
2018-11-26T16:41:16.346Z,28.43
2018-11-26T16:43:44.418Z,30.87
2018-11-26T16:46:12.438Z,32.17
2018-11-26T16:48:40.725Z,30.00
2018-11-26T16:51:08.754Z,32.07
2018-11-26T16:53:36.882Z,29.97
2018-11-26T16:56:04.894Z,32.53
2018-11-26T16:58:32.898Z,32.03
2018-11-26T17:01:01.346Z,32.43
2018-11-26T17:03:29.484Z,37.93
2018-11-26T17:05:57.570Z,31.87
2018-11-26T17:08:27.206Z,36.00
2018-11-26T17:10:55.211Z,34.37
2018-11-26T17:16:00.498Z,31.07
2018-11-26T17:18:29.407Z,37.60
2018-11-26T17:20:57.487Z,37.77
2018-11-26T17:23:25.654Z,34.77
2018-11-26T17:25:53.895Z,35.13
2018-11-26T17:28:21.911Z,35.93
2018-11-26T17:30:50.015Z,34.87
2018-11-26T17:33:18.075Z,35.17
2018-11-26T17:35:46.107Z,34.83
2018-11-26T17:38:14.112Z,34.17
2018-11-26T17:40:42.105Z,33.20
2018-11-26T17:43:11.059Z,37.03
2018-11-26T17:45:39.123Z,32.47
2018-11-26T17:48:07.178Z,36.07
2018-11-26T17:50:36.019Z,34.27
2018-11-26T17:53:05.119Z,37.57
2018-11-26T17:55:33.147Z,36.50
2018-11-26T17:58:01.248Z,33.87
2018-11-26T18:00:30.744Z,36.70
2018-11-26T18:02:58.759Z,34.23
2018-11-26T18:05:27.503Z,34.77
2018-11-26T18:07:56.671Z,33.50
2018-11-26T18:10:24.671Z,35.87
2018-11-26T18:12:52.709Z,33.70
2018-11-26T18:15:20.719Z,34.47
2018-11-26T18:17:48.731Z,36.97
2018-11-26T18:20:17.323Z,38.03
2018-11-26T18:22:46.035Z,33.13
2018-11-26T18:25:14.947Z,38.07
2018-11-26T18:27:45.491Z,35.40
2018-11-26T18:30:16.727Z,35.53
2018-11-26T18:32:44.757Z,34.10
2018-11-26T18:35:12.792Z,34.37
2018-11-26T18:37:40.796Z,35.97
2018-11-26T18:40:10.316Z,38.10
2018-11-26T18:42:38.336Z,35.97
2018-11-26T18:45:07.579Z,33.93
2018-11-26T18:47:35.636Z,34.57
2018-11-26T18:50:04.041Z,36.10
2018-11-26T18:52:32.024Z,35.87
2018-11-26T18:55:00.375Z,33.47
2018-11-26T18:57:28.424Z,36.37
2018-11-26T18:59:56.499Z,35.90
2018-11-26T19:02:24.491Z,35.40
2018-11-26T19:04:52.544Z,36.87
2018-11-26T19:07:20.681Z,37.70
2018-11-26T19:09:48.730Z,36.30
2018-11-26T19:12:16.742Z,34.10
2018-11-26T19:14:44.729Z,39.70
2018-11-26T19:17:12.754Z,32.17
2018-11-26T19:19:42.210Z,32.93
2018-11-26T19:22:08.786Z,32.10
2018-11-26T19:24:37.173Z,35.03
2018-11-26T19:27:05.229Z,33.77
2018-11-26T19:29:33.245Z,34.37
2018-11-26T19:32:01.274Z,37.17
2018-11-26T19:34:29.328Z,42.37
2018-11-26T19:36:57.461Z,35.57
2018-11-26T19:39:25.495Z,40.23
2018-11-26T19:41:53.693Z,33.40
2018-11-26T19:44:21.801Z,35.00
2018-11-26T19:46:49.944Z,32.93
2018-11-26T19:49:18.068Z,30.00
2018-11-26T19:51:46.160Z,29.60
2018-11-26T19:54:14.300Z,33.40
2018-11-26T19:56:42.468Z,31.23
2018-11-26T19:59:10.633Z,32.73
2018-11-26T20:01:38.853Z,31.77
2018-11-26T20:04:18.791Z,36.07
2018-11-26T20:06:46.875Z,33.40
2018-11-26T20:09:15.088Z,34.57
2018-11-26T20:11:43.165Z,31.30
2018-11-26T20:14:11.217Z,34.90
2018-11-26T20:16:40.340Z,31.90
2018-11-26T20:19:08.368Z,30.90
2018-11-26T20:21:36.721Z,30.27
2018-11-26T20:24:04.868Z,32.67
2018-11-26T20:26:33.157Z,29.93
2018-11-26T20:29:01.337Z,34.27
2018-11-26T20:31:29.477Z,35.87
2018-11-26T20:33:57.637Z,30.57
2018-11-26T20:36:25.801Z,32.27
2018-11-26T20:38:53.849Z,30.87
2018-11-26T20:41:21.949Z,31.47
2018-11-26T20:43:51.064Z,30.57
2018-11-26T20:46:19.273Z,35.13
2018-11-26T20:48:47.412Z,32.13
2018-11-26T20:51:15.464Z,33.83
2018-11-26T20:53:43.516Z,32.30
2018-11-26T20:56:12.628Z,36.33
2018-11-26T20:58:40.684Z,32.63
2018-11-26T21:01:08.740Z,33.00
2018-11-26T21:03:36.979Z,34.93
2018-11-26T21:06:05.480Z,35.83
2018-11-26T21:08:33.733Z,33.50
2018-11-26T21:11:01.997Z,34.53
2018-11-26T21:13:30.308Z,36.90
2018-11-26T21:15:58.565Z,35.67
2018-11-26T21:18:26.856Z,35.50
2018-11-26T21:20:55.135Z,36.67
2018-11-26T21:23:25.173Z,35.50
2018-11-26T21:25:53.628Z,36.30
2018-11-26T21:28:21.860Z,35.93
2018-11-26T21:30:52.268Z,35.80
2018-11-26T21:33:18.405Z,35.97
2018-11-26T21:35:46.701Z,35.93
2018-11-26T21:38:14.920Z,38.10
2018-11-26T21:40:43.189Z,38.43
2018-11-26T21:43:11.552Z,38.20
2018-11-26T21:45:43.912Z,36.33
2018-11-26T21:48:12.205Z,33.10
2018-11-26T21:50:40.449Z,37.93
2018-11-26T21:53:09.165Z,39.57
2018-11-26T21:55:37.445Z,34.90
2018-11-26T21:58:06.028Z,34.13
2018-11-26T22:00:34.507Z,39.43
2018-11-26T22:03:09.805Z,36.57
2018-11-26T22:05:38.364Z,34.33
2018-11-26T22:08:07.001Z,35.23
2018-11-26T22:10:35.824Z,34.70
2018-11-26T22:13:04.089Z,35.50
2018-11-26T22:15:32.344Z,36.13
2018-11-26T22:18:00.569Z,35.13
2018-11-26T22:20:29.537Z,34.17
2018-11-26T22:22:57.797Z,35.83
2018-11-26T22:25:26.057Z,33.33
2018-11-26T22:27:54.553Z,38.60
2018-11-26T22:30:27.389Z,38.27
2018-11-26T22:32:55.601Z,36.40
2018-11-26T22:35:23.827Z,37.03
2018-11-26T22:37:52.113Z,38.10
2018-11-26T22:40:21.421Z,37.50
2018-11-26T22:42:49.486Z,38.33
2018-11-26T22:45:34.888Z,38.47
2018-11-26T22:48:04.893Z,40.73
2018-11-26T22:50:32.933Z,39.83
2018-11-26T22:53:00.981Z,39.37
2018-11-26T22:55:29.037Z,37.80
2018-11-26T22:57:57.073Z,38.77
2018-11-26T23:00:27.781Z,39.47
2018-11-26T23:02:57.341Z,38.53
2018-11-26T23:05:25.409Z,37.20
2018-11-26T23:07:53.506Z,38.47
2018-11-26T23:10:21.533Z,37.80
2018-11-26T23:12:49.578Z,40.03
2018-11-26T23:15:17.849Z,37.07
2018-11-26T23:17:46.349Z,36.60
2018-11-26T23:20:14.998Z,36.80
2018-11-26T23:22:43.045Z,38.40
2018-11-26T23:25:12.701Z,39.13
2018-11-26T23:27:41.057Z,38.37
2018-11-26T23:30:16.617Z,38.50
2018-11-26T23:32:45.954Z,38.43
2018-11-26T23:35:14.278Z,36.43
2018-11-26T23:37:42.554Z,38.37
2018-11-26T23:40:11.814Z,35.43
2018-11-26T23:42:40.130Z,38.00
2018-11-26T23:45:10.817Z,37.30
2018-11-26T23:47:39.149Z,33.63
2018-11-26T23:50:09.838Z,36.27
2018-11-26T23:52:38.936Z,36.70
2018-11-26T23:55:08.652Z,35.40
2018-11-26T23:57:36.986Z,37.93
